sensor_id;sensor_type;location;lat;lon;timestamp;P1;durP1;ratioP1;P2;durP2;ratioP2
79790;SDS011;69278;52.220;5.172;2023-07-29T00:02:26;2.70;;;1.60;;
79790;SDS011;69278;52.220;5.172;2023-07-29T00:04:56;3.08;;;1.67;;
79790;SDS011;69278;52.220;5.172;2023-07-29T00:07:22;3.35;;;1.90;;
79790;SDS011;69278;52.220;5.172;2023-07-29T00:09:48;4.35;;;1.63;;
79790;SDS011;69278;52.220;5.172;2023-07-29T00:12:15;3.83;;;1.60;;
79790;SDS011;69278;52.220;5.172;2023-07-29T00:14:41;3.92;;;1.63;;
79790;SDS011;69278;52.220;5.172;2023-07-29T00:17:08;3.55;;;1.38;;
79790;SDS011;69278;52.220;5.172;2023-07-29T00:19:34;2.63;;;1.60;;
79790;SDS011;69278;52.220;5.172;2023-07-29T00:22:01;2.40;;;1.40;;
79790;SDS011;69278;52.220;5.172;2023-07-29T00:24:27;4.27;;;1.57;;
79790;SDS011;69278;52.220;5.172;2023-07-29T00:26:54;4.55;;;1.55;;
79790;SDS011;69278;52.220;5.172;2023-07-29T00:29:20;3.33;;;1.50;;
79790;SDS011;69278;52.220;5.172;2023-07-29T00:31:47;4.30;;;1.80;;
79790;SDS011;69278;52.220;5.172;2023-07-29T00:34:13;3.50;;;1.33;;
79790;SDS011;69278;52.220;5.172;2023-07-29T00:36:43;3.07;;;1.57;;
79790;SDS011;69278;52.220;5.172;2023-07-29T00:39:10;5.00;;;1.50;;
79790;SDS011;69278;52.220;5.172;2023-07-29T00:41:36;3.70;;;1.42;;
79790;SDS011;69278;52.220;5.172;2023-07-29T00:44:03;4.13;;;1.60;;
79790;SDS011;69278;52.220;5.172;2023-07-29T00:46:30;3.40;;;1.67;;
79790;SDS011;69278;52.220;5.172;2023-07-29T00:48:59;4.57;;;1.50;;
79790;SDS011;69278;52.220;5.172;2023-07-29T00:51:26;3.33;;;1.63;;
79790;SDS011;69278;52.220;5.172;2023-07-29T00:53:53;4.35;;;1.60;;
79790;SDS011;69278;52.220;5.172;2023-07-29T00:56:19;3.83;;;1.52;;
79790;SDS011;69278;52.220;5.172;2023-07-29T00:58:46;4.60;;;1.60;;
79790;SDS011;69278;52.220;5.172;2023-07-29T01:01:12;3.17;;;1.67;;
79790;SDS011;69278;52.220;5.172;2023-07-29T01:03:39;6.30;;;1.50;;
79790;SDS011;69278;52.220;5.172;2023-07-29T01:06:12;3.78;;;1.40;;
79790;SDS011;69278;52.220;5.172;2023-07-29T01:11:26;3.72;;;1.73;;
79790;SDS011;69278;52.220;5.172;2023-07-29T01:14:04;6.33;;;1.60;;
79790;SDS011;69278;52.220;5.172;2023-07-29T01:16:44;5.30;;;1.40;;
79790;SDS011;69278;52.220;5.172;2023-07-29T01:22:32;4.40;;;1.73;;
79790;SDS011;69278;52.220;5.172;2023-07-29T01:25:00;2.53;;;1.50;;
79790;SDS011;69278;52.220;5.172;2023-07-29T01:27:27;7.37;;;1.70;;
79790;SDS011;69278;52.220;5.172;2023-07-29T01:29:54;4.93;;;1.45;;
79790;SDS011;69278;52.220;5.172;2023-07-29T01:35:00;6.50;;;1.90;;
79790;SDS011;69278;52.220;5.172;2023-07-29T01:37:35;3.85;;;1.52;;
79790;SDS011;69278;52.220;5.172;2023-07-29T01:40:04;4.23;;;1.87;;
79790;SDS011;69278;52.220;5.172;2023-07-29T01:42:33;3.63;;;1.75;;
79790;SDS011;69278;52.220;5.172;2023-07-29T01:45:00;4.00;;;1.70;;
79790;SDS011;69278;52.220;5.172;2023-07-29T01:47:27;4.72;;;1.80;;
79790;SDS011;69278;52.220;5.172;2023-07-29T01:49:53;4.88;;;1.77;;
79790;SDS011;69278;52.220;5.172;2023-07-29T01:52:19;8.00;;;2.30;;
79790;SDS011;69278;52.220;5.172;2023-07-29T01:54:46;5.78;;;2.17;;
79790;SDS011;69278;52.220;5.172;2023-07-29T01:57:12;7.78;;;2.20;;
79790;SDS011;69278;52.220;5.172;2023-07-29T01:59:39;4.93;;;2.20;;
79790;SDS011;69278;52.220;5.172;2023-07-29T02:02:05;4.97;;;2.10;;
79790;SDS011;69278;52.220;5.172;2023-07-29T02:04:32;5.37;;;2.20;;
79790;SDS011;69278;52.220;5.172;2023-07-29T02:06:58;5.90;;;2.47;;
79790;SDS011;69278;52.220;5.172;2023-07-29T02:09:25;6.50;;;2.67;;
79790;SDS011;69278;52.220;5.172;2023-07-29T02:11:52;7.45;;;3.28;;
79790;SDS011;69278;52.220;5.172;2023-07-29T02:14:18;6.15;;;2.78;;
79790;SDS011;69278;52.220;5.172;2023-07-29T02:16:44;8.40;;;2.53;;
79790;SDS011;69278;52.220;5.172;2023-07-29T02:19:11;5.60;;;3.10;;
79790;SDS011;69278;52.220;5.172;2023-07-29T02:21:37;6.65;;;2.95;;
79790;SDS011;69278;52.220;5.172;2023-07-29T02:24:04;7.80;;;3.13;;
79790;SDS011;69278;52.220;5.172;2023-07-29T02:26:30;6.10;;;2.70;;
79790;SDS011;69278;52.220;5.172;2023-07-29T02:28:57;6.87;;;3.17;;
79790;SDS011;69278;52.220;5.172;2023-07-29T02:31:24;7.50;;;2.90;;
79790;SDS011;69278;52.220;5.172;2023-07-29T02:33:51;8.77;;;3.05;;
79790;SDS011;69278;52.220;5.172;2023-07-29T02:36:18;6.35;;;3.08;;
79790;SDS011;69278;52.220;5.172;2023-07-29T02:38:44;8.10;;;3.00;;
79790;SDS011;69278;52.220;5.172;2023-07-29T02:41:11;8.73;;;3.10;;
79790;SDS011;69278;52.220;5.172;2023-07-29T02:43:42;6.35;;;2.78;;
79790;SDS011;69278;52.220;5.172;2023-07-29T02:46:10;9.27;;;3.03;;
79790;SDS011;69278;52.220;5.172;2023-07-29T02:48:36;6.57;;;2.90;;
79790;SDS011;69278;52.220;5.172;2023-07-29T02:51:03;6.45;;;3.10;;
79790;SDS011;69278;52.220;5.172;2023-07-29T02:53:29;5.43;;;2.80;;
79790;SDS011;69278;52.220;5.172;2023-07-29T02:55:56;5.18;;;2.60;;
79790;SDS011;69278;52.220;5.172;2023-07-29T02:58:22;5.68;;;2.80;;
79790;SDS011;69278;52.220;5.172;2023-07-29T03:00:49;6.72;;;2.78;;
79790;SDS011;69278;52.220;5.172;2023-07-29T03:03:16;5.65;;;2.78;;
79790;SDS011;69278;52.220;5.172;2023-07-29T03:05:43;4.80;;;2.80;;
79790;SDS011;69278;52.220;5.172;2023-07-29T03:08:09;6.20;;;2.70;;
79790;SDS011;69278;52.220;5.172;2023-07-29T03:10:36;6.40;;;2.70;;
79790;SDS011;69278;52.220;5.172;2023-07-29T03:13:02;5.03;;;2.70;;
79790;SDS011;69278;52.220;5.172;2023-07-29T03:15:29;7.65;;;3.00;;
79790;SDS011;69278;52.220;5.172;2023-07-29T03:17:56;5.37;;;2.90;;
79790;SDS011;69278;52.220;5.172;2023-07-29T03:20:22;5.70;;;2.80;;
79790;SDS011;69278;52.220;5.172;2023-07-29T03:22:49;6.13;;;2.78;;
79790;SDS011;69278;52.220;5.172;2023-07-29T03:25:15;6.28;;;2.92;;
79790;SDS011;69278;52.220;5.172;2023-07-29T03:27:42;5.50;;;2.92;;
79790;SDS011;69278;52.220;5.172;2023-07-29T03:30:08;9.13;;;2.83;;
79790;SDS011;69278;52.220;5.172;2023-07-29T03:32:37;7.38;;;3.00;;
79790;SDS011;69278;52.220;5.172;2023-07-29T03:35:07;5.35;;;2.63;;
79790;SDS011;69278;52.220;5.172;2023-07-29T03:37:33;6.03;;;3.08;;
79790;SDS011;69278;52.220;5.172;2023-07-29T03:40:00;6.93;;;3.00;;
79790;SDS011;69278;52.220;5.172;2023-07-29T03:42:30;5.47;;;2.97;;
79790;SDS011;69278;52.220;5.172;2023-07-29T03:44:56;5.35;;;2.67;;
79790;SDS011;69278;52.220;5.172;2023-07-29T03:47:23;7.07;;;2.60;;
79790;SDS011;69278;52.220;5.172;2023-07-29T03:49:49;5.40;;;2.40;;
79790;SDS011;69278;52.220;5.172;2023-07-29T03:52:16;6.93;;;2.65;;
79790;SDS011;69278;52.220;5.172;2023-07-29T03:54:42;5.50;;;2.60;;
79790;SDS011;69278;52.220;5.172;2023-07-29T03:57:09;7.40;;;2.50;;
79790;SDS011;69278;52.220;5.172;2023-07-29T03:59:35;5.72;;;2.60;;
79790;SDS011;69278;52.220;5.172;2023-07-29T04:02:02;5.70;;;2.28;;
79790;SDS011;69278;52.220;5.172;2023-07-29T04:04:28;5.45;;;2.22;;
79790;SDS011;69278;52.220;5.172;2023-07-29T04:06:55;9.17;;;2.10;;
79790;SDS011;69278;52.220;5.172;2023-07-29T04:09:21;5.47;;;2.30;;
79790;SDS011;69278;52.220;5.172;2023-07-29T04:11:48;3.80;;;2.10;;
79790;SDS011;69278;52.220;5.172;2023-07-29T04:14:16;4.10;;;1.80;;
79790;SDS011;69278;52.220;5.172;2023-07-29T04:16:42;6.00;;;2.85;;
79790;SDS011;69278;52.220;5.172;2023-07-29T04:19:09;5.33;;;2.20;;
79790;SDS011;69278;52.220;5.172;2023-07-29T04:21:35;4.07;;;2.05;;
79790;SDS011;69278;52.220;5.172;2023-07-29T04:24:02;5.07;;;2.30;;
79790;SDS011;69278;52.220;5.172;2023-07-29T04:26:28;4.72;;;1.90;;
79790;SDS011;69278;52.220;5.172;2023-07-29T04:28:55;7.82;;;2.22;;
79790;SDS011;69278;52.220;5.172;2023-07-29T04:31:21;5.13;;;2.20;;
79790;SDS011;69278;52.220;5.172;2023-07-29T04:33:48;4.53;;;1.90;;
79790;SDS011;69278;52.220;5.172;2023-07-29T04:36:14;4.18;;;2.00;;
79790;SDS011;69278;52.220;5.172;2023-07-29T04:38:41;4.50;;;2.03;;
79790;SDS011;69278;52.220;5.172;2023-07-29T04:41:07;3.95;;;2.42;;
79790;SDS011;69278;52.220;5.172;2023-07-29T04:43:35;4.93;;;2.37;;
79790;SDS011;69278;52.220;5.172;2023-07-29T04:46:01;4.88;;;2.20;;
79790;SDS011;69278;52.220;5.172;2023-07-29T04:48:28;4.53;;;2.15;;
79790;SDS011;69278;52.220;5.172;2023-07-29T04:50:54;5.38;;;2.35;;
79790;SDS011;69278;52.220;5.172;2023-07-29T04:53:21;5.65;;;2.40;;
79790;SDS011;69278;52.220;5.172;2023-07-29T04:55:47;5.33;;;2.20;;
79790;SDS011;69278;52.220;5.172;2023-07-29T04:58:14;4.65;;;1.95;;
79790;SDS011;69278;52.220;5.172;2023-07-29T05:00:40;4.45;;;2.10;;
79790;SDS011;69278;52.220;5.172;2023-07-29T05:03:07;4.32;;;2.20;;
79790;SDS011;69278;52.220;5.172;2023-07-29T05:05:33;4.05;;;2.25;;
79790;SDS011;69278;52.220;5.172;2023-07-29T05:08:00;3.83;;;2.10;;
79790;SDS011;69278;52.220;5.172;2023-07-29T05:10:26;3.50;;;2.10;;
79790;SDS011;69278;52.220;5.172;2023-07-29T05:12:53;5.85;;;2.50;;
79790;SDS011;69278;52.220;5.172;2023-07-29T05:15:19;3.58;;;2.17;;
79790;SDS011;69278;52.220;5.172;2023-07-29T05:17:46;4.38;;;2.08;;
79790;SDS011;69278;52.220;5.172;2023-07-29T05:20:12;5.10;;;1.90;;
79790;SDS011;69278;52.220;5.172;2023-07-29T05:22:39;5.72;;;2.05;;
79790;SDS011;69278;52.220;5.172;2023-07-29T05:25:05;5.38;;;2.22;;
79790;SDS011;69278;52.220;5.172;2023-07-29T05:27:32;5.22;;;2.20;;
79790;SDS011;69278;52.220;5.172;2023-07-29T05:29:59;3.00;;;1.83;;
79790;SDS011;69278;52.220;5.172;2023-07-29T05:32:25;5.17;;;2.07;;
79790;SDS011;69278;52.220;5.172;2023-07-29T05:34:51;3.92;;;2.05;;
79790;SDS011;69278;52.220;5.172;2023-07-29T05:37:18;5.05;;;1.90;;
79790;SDS011;69278;52.220;5.172;2023-07-29T05:39:44;4.97;;;1.90;;
79790;SDS011;69278;52.220;5.172;2023-07-29T05:42:11;3.78;;;1.80;;
79790;SDS011;69278;52.220;5.172;2023-07-29T05:44:37;16.37;;;2.27;;
79790;SDS011;69278;52.220;5.172;2023-07-29T05:47:04;4.50;;;2.10;;
79790;SDS011;69278;52.220;5.172;2023-07-29T05:49:31;5.82;;;2.35;;
79790;SDS011;69278;52.220;5.172;2023-07-29T05:51:57;4.70;;;2.10;;
79790;SDS011;69278;52.220;5.172;2023-07-29T05:54:23;6.07;;;2.50;;
79790;SDS011;69278;52.220;5.172;2023-07-29T05:56:50;5.77;;;2.10;;
79790;SDS011;69278;52.220;5.172;2023-07-29T05:59:16;6.53;;;2.22;;
79790;SDS011;69278;52.220;5.172;2023-07-29T06:01:43;7.15;;;2.25;;
79790;SDS011;69278;52.220;5.172;2023-07-29T06:04:09;5.57;;;2.45;;
79790;SDS011;69278;52.220;5.172;2023-07-29T06:06:36;4.95;;;2.22;;
79790;SDS011;69278;52.220;5.172;2023-07-29T06:09:03;4.77;;;2.33;;
79790;SDS011;69278;52.220;5.172;2023-07-29T06:11:29;3.97;;;2.10;;
79790;SDS011;69278;52.220;5.172;2023-07-29T06:13:56;4.60;;;2.40;;
79790;SDS011;69278;52.220;5.172;2023-07-29T06:16:22;4.28;;;2.10;;
79790;SDS011;69278;52.220;5.172;2023-07-29T06:18:49;5.43;;;2.35;;
79790;SDS011;69278;52.220;5.172;2023-07-29T06:21:15;4.80;;;2.30;;
79790;SDS011;69278;52.220;5.172;2023-07-29T06:23:44;5.82;;;2.22;;
79790;SDS011;69278;52.220;5.172;2023-07-29T06:26:10;9.43;;;3.05;;
79790;SDS011;69278;52.220;5.172;2023-07-29T06:28:37;5.15;;;2.42;;
79790;SDS011;69278;52.220;5.172;2023-07-29T06:31:03;3.83;;;2.10;;
79790;SDS011;69278;52.220;5.172;2023-07-29T06:33:30;6.23;;;2.70;;
79790;SDS011;69278;52.220;5.172;2023-07-29T06:35:56;6.93;;;2.60;;
79790;SDS011;69278;52.220;5.172;2023-07-29T06:38:23;5.13;;;2.40;;
79790;SDS011;69278;52.220;5.172;2023-07-29T06:40:49;5.97;;;2.70;;
79790;SDS011;69278;52.220;5.172;2023-07-29T06:43:16;6.45;;;2.42;;
79790;SDS011;69278;52.220;5.172;2023-07-29T06:45:43;5.97;;;2.50;;
79790;SDS011;69278;52.220;5.172;2023-07-29T06:48:09;5.88;;;2.60;;
79790;SDS011;69278;52.220;5.172;2023-07-29T06:50:36;5.05;;;2.70;;
79790;SDS011;69278;52.220;5.172;2023-07-29T06:53:03;5.63;;;2.22;;
79790;SDS011;69278;52.220;5.172;2023-07-29T06:55:29;7.35;;;2.80;;
79790;SDS011;69278;52.220;5.172;2023-07-29T06:57:56;5.77;;;2.70;;
79790;SDS011;69278;52.220;5.172;2023-07-29T07:00:22;6.00;;;3.03;;
79790;SDS011;69278;52.220;5.172;2023-07-29T07:02:49;6.13;;;2.95;;
79790;SDS011;69278;52.220;5.172;2023-07-29T07:05:15;4.25;;;2.45;;
79790;SDS011;69278;52.220;5.172;2023-07-29T07:07:42;6.82;;;2.72;;
79790;SDS011;69278;52.220;5.172;2023-07-29T07:10:08;6.43;;;3.10;;
79790;SDS011;69278;52.220;5.172;2023-07-29T07:12:35;12.40;;;2.92;;
79790;SDS011;69278;52.220;5.172;2023-07-29T07:15:01;8.60;;;3.70;;
79790;SDS011;69278;52.220;5.172;2023-07-29T07:17:28;8.27;;;2.78;;
79790;SDS011;69278;52.220;5.172;2023-07-29T07:19:54;6.30;;;3.05;;
79790;SDS011;69278;52.220;5.172;2023-07-29T07:22:21;5.07;;;2.70;;
79790;SDS011;69278;52.220;5.172;2023-07-29T07:24:47;6.43;;;3.10;;
79790;SDS011;69278;52.220;5.172;2023-07-29T07:27:14;7.85;;;3.00;;
79790;SDS011;69278;52.220;5.172;2023-07-29T07:29:40;4.78;;;2.60;;
79790;SDS011;69278;52.220;5.172;2023-07-29T07:32:07;5.07;;;2.85;;
79790;SDS011;69278;52.220;5.172;2023-07-29T07:34:33;6.20;;;2.40;;
79790;SDS011;69278;52.220;5.172;2023-07-29T07:37:00;7.03;;;3.25;;
79790;SDS011;69278;52.220;5.172;2023-07-29T07:39:27;5.78;;;2.88;;
79790;SDS011;69278;52.220;5.172;2023-07-29T07:41:53;8.57;;;3.05;;
79790;SDS011;69278;52.220;5.172;2023-07-29T07:44:20;4.68;;;2.55;;
79790;SDS011;69278;52.220;5.172;2023-07-29T07:46:46;7.23;;;3.93;;
79790;SDS011;69278;52.220;5.172;2023-07-29T07:49:13;6.03;;;2.88;;
79790;SDS011;69278;52.220;5.172;2023-07-29T07:51:40;5.70;;;3.00;;
79790;SDS011;69278;52.220;5.172;2023-07-29T07:54:06;6.30;;;3.38;;
79790;SDS011;69278;52.220;5.172;2023-07-29T07:56:33;5.47;;;2.70;;
79790;SDS011;69278;52.220;5.172;2023-07-29T07:59:00;5.73;;;2.93;;
79790;SDS011;69278;52.220;5.172;2023-07-29T08:01:26;7.13;;;3.08;;
79790;SDS011;69278;52.220;5.172;2023-07-29T08:03:53;5.07;;;2.70;;
79790;SDS011;69278;52.220;5.172;2023-07-29T08:06:19;5.90;;;2.83;;
79790;SDS011;69278;52.220;5.172;2023-07-29T08:08:46;5.30;;;3.25;;
79790;SDS011;69278;52.220;5.172;2023-07-29T08:11:12;6.53;;;3.40;;
79790;SDS011;69278;52.220;5.172;2023-07-29T08:13:39;4.82;;;2.78;;
79790;SDS011;69278;52.220;5.172;2023-07-29T08:16:05;5.18;;;3.22;;
79790;SDS011;69278;52.220;5.172;2023-07-29T08:18:32;6.20;;;3.05;;
79790;SDS011;69278;52.220;5.172;2023-07-29T08:20:58;6.38;;;3.65;;
79790;SDS011;69278;52.220;5.172;2023-07-29T08:23:30;7.27;;;4.13;;
79790;SDS011;69278;52.220;5.172;2023-07-29T08:25:58;6.10;;;4.07;;
79790;SDS011;69278;52.220;5.172;2023-07-29T08:28:29;5.65;;;3.50;;
79790;SDS011;69278;52.220;5.172;2023-07-29T08:30:57;5.50;;;3.40;;
79790;SDS011;69278;52.220;5.172;2023-07-29T08:33:24;4.97;;;3.45;;
79790;SDS011;69278;52.220;5.172;2023-07-29T08:35:51;6.43;;;3.40;;
79790;SDS011;69278;52.220;5.172;2023-07-29T08:38:17;4.50;;;2.95;;
79790;SDS011;69278;52.220;5.172;2023-07-29T08:41:06;4.15;;;2.80;;
79790;SDS011;69278;52.220;5.172;2023-07-29T08:43:35;4.47;;;2.80;;
79790;SDS011;69278;52.220;5.172;2023-07-29T08:46:05;5.75;;;2.70;;
79790;SDS011;69278;52.220;5.172;2023-07-29T08:48:42;7.00;;;2.43;;
79790;SDS011;69278;52.220;5.172;2023-07-29T08:51:10;5.30;;;2.17;;
79790;SDS011;69278;52.220;5.172;2023-07-29T08:53:37;7.53;;;2.30;;
79790;SDS011;69278;52.220;5.172;2023-07-29T08:56:04;5.68;;;2.10;;
79790;SDS011;69278;52.220;5.172;2023-07-29T08:58:32;5.10;;;2.20;;
79790;SDS011;69278;52.220;5.172;2023-07-29T09:00:59;4.33;;;1.97;;
79790;SDS011;69278;52.220;5.172;2023-07-29T09:03:26;3.53;;;2.20;;
79790;SDS011;69278;52.220;5.172;2023-07-29T09:05:53;3.88;;;2.03;;
79790;SDS011;69278;52.220;5.172;2023-07-29T09:08:24;4.55;;;2.55;;
79790;SDS011;69278;52.220;5.172;2023-07-29T09:10:53;5.20;;;2.60;;
79790;SDS011;69278;52.220;5.172;2023-07-29T09:13:21;4.33;;;2.30;;
79790;SDS011;69278;52.220;5.172;2023-07-29T09:15:48;5.65;;;2.65;;
79790;SDS011;69278;52.220;5.172;2023-07-29T09:18:16;4.85;;;2.22;;
79790;SDS011;69278;52.220;5.172;2023-07-29T09:20:46;5.22;;;2.50;;
79790;SDS011;69278;52.220;5.172;2023-07-29T09:23:14;4.88;;;2.22;;
79790;SDS011;69278;52.220;5.172;2023-07-29T09:25:40;4.83;;;2.40;;
79790;SDS011;69278;52.220;5.172;2023-07-29T09:28:11;3.85;;;2.20;;
79790;SDS011;69278;52.220;5.172;2023-07-29T09:30:39;3.10;;;1.80;;
79790;SDS011;69278;52.220;5.172;2023-07-29T09:33:06;3.22;;;1.60;;
79790;SDS011;69278;52.220;5.172;2023-07-29T09:35:33;4.90;;;1.80;;
79790;SDS011;69278;52.220;5.172;2023-07-29T09:38:01;4.60;;;1.90;;
79790;SDS011;69278;52.220;5.172;2023-07-29T09:40:38;4.43;;;1.80;;
79790;SDS011;69278;52.220;5.172;2023-07-29T09:43:05;3.25;;;1.50;;
79790;SDS011;69278;52.220;5.172;2023-07-29T09:45:33;3.67;;;1.60;;
79790;SDS011;69278;52.220;5.172;2023-07-29T09:48:02;3.25;;;1.75;;
79790;SDS011;69278;52.220;5.172;2023-07-29T09:50:29;5.23;;;2.20;;
79790;SDS011;69278;52.220;5.172;2023-07-29T09:52:56;4.00;;;1.65;;
79790;SDS011;69278;52.220;5.172;2023-07-29T09:55:26;2.72;;;1.55;;
79790;SDS011;69278;52.220;5.172;2023-07-29T09:57:56;4.13;;;1.80;;
79790;SDS011;69278;52.220;5.172;2023-07-29T10:00:31;5.28;;;2.20;;
79790;SDS011;69278;52.220;5.172;2023-07-29T10:02:58;4.57;;;2.33;;
79790;SDS011;69278;52.220;5.172;2023-07-29T10:05:26;3.22;;;2.20;;
79790;SDS011;69278;52.220;5.172;2023-07-29T10:07:54;4.15;;;2.22;;
79790;SDS011;69278;52.220;5.172;2023-07-29T10:10:21;3.40;;;2.40;;
79790;SDS011;69278;52.220;5.172;2023-07-29T10:12:48;4.25;;;2.50;;
79790;SDS011;69278;52.220;5.172;2023-07-29T10:15:16;4.30;;;2.20;;
79790;SDS011;69278;52.220;5.172;2023-07-29T10:17:43;5.47;;;2.33;;
79790;SDS011;69278;52.220;5.172;2023-07-29T10:20:15;3.95;;;2.38;;
79790;SDS011;69278;52.220;5.172;2023-07-29T10:22:42;4.28;;;2.40;;
79790;SDS011;69278;52.220;5.172;2023-07-29T10:27:42;4.60;;;2.33;;
79790;SDS011;69278;52.220;5.172;2023-07-29T10:30:13;6.38;;;2.45;;
79790;SDS011;69278;52.220;5.172;2023-07-29T10:32:43;5.00;;;2.38;;
79790;SDS011;69278;52.220;5.172;2023-07-29T10:35:14;5.50;;;1.85;;
79790;SDS011;69278;52.220;5.172;2023-07-29T10:37:42;2.90;;;2.05;;
79790;SDS011;69278;52.220;5.172;2023-07-29T10:40:09;4.77;;;1.80;;
79790;SDS011;69278;52.220;5.172;2023-07-29T10:42:37;3.80;;;2.20;;
79790;SDS011;69278;52.220;5.172;2023-07-29T10:45:17;4.28;;;2.42;;
79790;SDS011;69278;52.220;5.172;2023-07-29T10:47:47;5.10;;;2.67;;
79790;SDS011;69278;52.220;5.172;2023-07-29T10:50:18;4.40;;;2.70;;
79790;SDS011;69278;52.220;5.172;2023-07-29T10:52:52;4.47;;;2.90;;
79790;SDS011;69278;52.220;5.172;2023-07-29T10:55:29;5.82;;;3.20;;
79790;SDS011;69278;52.220;5.172;2023-07-29T10:58:05;6.28;;;3.00;;
79790;SDS011;69278;52.220;5.172;2023-07-29T11:00:38;6.68;;;3.45;;
79790;SDS011;69278;52.220;5.172;2023-07-29T11:03:05;7.32;;;3.58;;
79790;SDS011;69278;52.220;5.172;2023-07-29T11:05:43;6.47;;;3.77;;
79790;SDS011;69278;52.220;5.172;2023-07-29T11:08:17;4.95;;;3.50;;
79790;SDS011;69278;52.220;5.172;2023-07-29T11:10:57;11.07;;;3.80;;
79790;SDS011;69278;52.220;5.172;2023-07-29T11:13:28;7.80;;;4.57;;
79790;SDS011;69278;52.220;5.172;2023-07-29T11:15:56;6.80;;;4.47;;
79790;SDS011;69278;52.220;5.172;2023-07-29T11:18:28;6.27;;;4.30;;
79790;SDS011;69278;52.220;5.172;2023-07-29T11:20:56;8.60;;;4.20;;
79790;SDS011;69278;52.220;5.172;2023-07-29T11:23:27;6.47;;;4.47;;
79790;SDS011;69278;52.220;5.172;2023-07-29T11:25:56;6.13;;;3.97;;
79790;SDS011;69278;52.220;5.172;2023-07-29T11:28:23;5.97;;;3.80;;
79790;SDS011;69278;52.220;5.172;2023-07-29T11:30:50;6.50;;;3.53;;
79790;SDS011;69278;52.220;5.172;2023-07-29T11:33:18;5.25;;;3.40;;
79790;SDS011;69278;52.220;5.172;2023-07-29T11:35:48;6.35;;;2.80;;
79790;SDS011;69278;52.220;5.172;2023-07-29T11:38:16;3.20;;;2.35;;
79790;SDS011;69278;52.220;5.172;2023-07-29T11:40:44;6.28;;;2.00;;
79790;SDS011;69278;52.220;5.172;2023-07-29T11:43:20;3.57;;;1.70;;
79790;SDS011;69278;52.220;5.172;2023-07-29T11:45:46;3.20;;;1.55;;
79790;SDS011;69278;52.220;5.172;2023-07-29T11:48:17;3.00;;;1.60;;
79790;SDS011;69278;52.220;5.172;2023-07-29T11:50:44;3.00;;;1.80;;
79790;SDS011;69278;52.220;5.172;2023-07-29T11:53:11;2.40;;;1.70;;
79790;SDS011;69278;52.220;5.172;2023-07-29T11:55:42;3.37;;;1.90;;
79790;SDS011;69278;52.220;5.172;2023-07-29T11:58:08;2.25;;;1.50;;
79790;SDS011;69278;52.220;5.172;2023-07-29T12:00:36;2.38;;;1.50;;
79790;SDS011;69278;52.220;5.172;2023-07-29T12:03:04;3.92;;;1.90;;
79790;SDS011;69278;52.220;5.172;2023-07-29T12:05:31;2.67;;;1.77;;
79790;SDS011;69278;52.220;5.172;2023-07-29T12:07:57;6.97;;;1.70;;
79790;SDS011;69278;52.220;5.172;2023-07-29T12:10:25;3.15;;;1.90;;
79790;SDS011;69278;52.220;5.172;2023-07-29T12:12:51;4.28;;;1.75;;
79790;SDS011;69278;52.220;5.172;2023-07-29T12:15:25;2.63;;;1.70;;
79790;SDS011;69278;52.220;5.172;2023-07-29T12:17:54;2.40;;;1.70;;
79790;SDS011;69278;52.220;5.172;2023-07-29T12:20:23;3.00;;;1.80;;
79790;SDS011;69278;52.220;5.172;2023-07-29T12:22:57;3.05;;;1.70;;
79790;SDS011;69278;52.220;5.172;2023-07-29T12:25:32;2.33;;;1.83;;
79790;SDS011;69278;52.220;5.172;2023-07-29T12:28:02;3.15;;;1.90;;
79790;SDS011;69278;52.220;5.172;2023-07-29T12:30:30;3.58;;;2.00;;
79790;SDS011;69278;52.220;5.172;2023-07-29T12:32:57;4.40;;;2.30;;
79790;SDS011;69278;52.220;5.172;2023-07-29T12:35:24;3.55;;;2.30;;
79790;SDS011;69278;52.220;5.172;2023-07-29T12:37:59;3.42;;;2.00;;
79790;SDS011;69278;52.220;5.172;2023-07-29T12:40:26;2.50;;;1.83;;
79790;SDS011;69278;52.220;5.172;2023-07-29T12:42:53;4.10;;;2.40;;
79790;SDS011;69278;52.220;5.172;2023-07-29T12:45:20;4.37;;;2.40;;
79790;SDS011;69278;52.220;5.172;2023-07-29T12:47:50;4.47;;;2.78;;
79790;SDS011;69278;52.220;5.172;2023-07-29T12:50:16;3.25;;;2.63;;
79790;SDS011;69278;52.220;5.172;2023-07-29T12:52:44;3.20;;;2.42;;
79790;SDS011;69278;52.220;5.172;2023-07-29T12:55:10;3.08;;;2.30;;
79790;SDS011;69278;52.220;5.172;2023-07-29T12:57:41;2.87;;;2.17;;
79790;SDS011;69278;52.220;5.172;2023-07-29T13:00:08;3.17;;;2.33;;
79790;SDS011;69278;52.220;5.172;2023-07-29T13:02:36;3.42;;;2.42;;
79790;SDS011;69278;52.220;5.172;2023-07-29T13:05:02;3.17;;;2.30;;
79790;SDS011;69278;52.220;5.172;2023-07-29T13:07:29;3.60;;;2.63;;
79790;SDS011;69278;52.220;5.172;2023-07-29T13:09:55;3.97;;;2.50;;
79790;SDS011;69278;52.220;5.172;2023-07-29T13:12:22;3.70;;;2.65;;
79790;SDS011;69278;52.220;5.172;2023-07-29T13:14:48;3.65;;;2.40;;
79790;SDS011;69278;52.220;5.172;2023-07-29T13:17:15;3.40;;;2.30;;
79790;SDS011;69278;52.220;5.172;2023-07-29T13:19:41;3.97;;;2.60;;
79790;SDS011;69278;52.220;5.172;2023-07-29T13:22:08;4.17;;;2.30;;
79790;SDS011;69278;52.220;5.172;2023-07-29T13:24:34;2.97;;;2.50;;
79790;SDS011;69278;52.220;5.172;2023-07-29T13:27:01;3.53;;;2.20;;
79790;SDS011;69278;52.220;5.172;2023-07-29T13:29:27;3.10;;;2.25;;
79790;SDS011;69278;52.220;5.172;2023-07-29T13:31:54;3.92;;;2.58;;
79790;SDS011;69278;52.220;5.172;2023-07-29T13:34:20;3.07;;;2.23;;
79790;SDS011;69278;52.220;5.172;2023-07-29T13:36:47;6.32;;;2.63;;
79790;SDS011;69278;52.220;5.172;2023-07-29T13:39:13;5.28;;;2.92;;
79790;SDS011;69278;52.220;5.172;2023-07-29T13:41:40;3.38;;;2.22;;
79790;SDS011;69278;52.220;5.172;2023-07-29T13:44:06;4.90;;;3.30;;
79790;SDS011;69278;52.220;5.172;2023-07-29T13:46:33;3.50;;;2.80;;
79790;SDS011;69278;52.220;5.172;2023-07-29T13:48:59;5.35;;;3.10;;
79790;SDS011;69278;52.220;5.172;2023-07-29T13:51:26;6.07;;;2.90;;
79790;SDS011;69278;52.220;5.172;2023-07-29T13:53:52;4.40;;;2.70;;
79790;SDS011;69278;52.220;5.172;2023-07-29T13:56:19;3.90;;;2.70;;
79790;SDS011;69278;52.220;5.172;2023-07-29T13:58:45;5.07;;;2.50;;
79790;SDS011;69278;52.220;5.172;2023-07-29T14:01:12;3.60;;;2.70;;
79790;SDS011;69278;52.220;5.172;2023-07-29T14:03:38;4.88;;;2.70;;
79790;SDS011;69278;52.220;5.172;2023-07-29T14:06:05;5.10;;;2.90;;
79790;SDS011;69278;52.220;5.172;2023-07-29T14:08:31;5.72;;;3.13;;
79790;SDS011;69278;52.220;5.172;2023-07-29T14:10:58;4.33;;;2.70;;
79790;SDS011;69278;52.220;5.172;2023-07-29T14:13:25;4.05;;;2.40;;
79790;SDS011;69278;52.220;5.172;2023-07-29T14:15:51;5.45;;;2.70;;
79790;SDS011;69278;52.220;5.172;2023-07-29T14:18:18;4.38;;;2.15;;
79790;SDS011;69278;52.220;5.172;2023-07-29T14:20:44;4.57;;;2.30;;
79790;SDS011;69278;52.220;5.172;2023-07-29T14:23:11;5.17;;;2.20;;
79790;SDS011;69278;52.220;5.172;2023-07-29T14:25:37;3.38;;;2.17;;
79790;SDS011;69278;52.220;5.172;2023-07-29T14:28:04;3.08;;;2.10;;
79790;SDS011;69278;52.220;5.172;2023-07-29T14:30:30;3.53;;;2.20;;
79790;SDS011;69278;52.220;5.172;2023-07-29T14:32:57;3.05;;;1.95;;
79790;SDS011;69278;52.220;5.172;2023-07-29T14:35:23;3.90;;;1.83;;
79790;SDS011;69278;52.220;5.172;2023-07-29T14:37:50;3.65;;;1.63;;
79790;SDS011;69278;52.220;5.172;2023-07-29T14:40:16;3.80;;;2.00;;
79790;SDS011;69278;52.220;5.172;2023-07-29T14:42:43;3.53;;;2.13;;
79790;SDS011;69278;52.220;5.172;2023-07-29T14:45:09;3.90;;;1.85;;
79790;SDS011;69278;52.220;5.172;2023-07-29T14:47:36;2.30;;;1.20;;
79790;SDS011;69278;52.220;5.172;2023-07-29T14:50:03;3.65;;;1.50;;
79790;SDS011;69278;52.220;5.172;2023-07-29T14:52:29;3.85;;;1.38;;
79790;SDS011;69278;52.220;5.172;2023-07-29T14:54:56;3.25;;;1.52;;
79790;SDS011;69278;52.220;5.172;2023-07-29T14:57:22;2.58;;;1.30;;
79790;SDS011;69278;52.220;5.172;2023-07-29T14:59:49;1.90;;;1.13;;
79790;SDS011;69278;52.220;5.172;2023-07-29T15:02:15;2.20;;;1.00;;